Back to Top

Language: 

My Weather Underground Personal Weather Station Historical Data with Graphs...

Delerius Weather Station Historical Data
Daily Summary for January 15, 2017 Units:  Both    English   Metric
« Previous Day
Next Day »
Daily Weekly Monthly Yearly Custom
  High: Low: Average:
Temperature: 49.2 °F /  9.6 °C 34.7 °F /  1.5 °C 44.7 °F /  7.1 °C
Dew Point: 47.5 °F /  8.6 °C 32.6 °F /  0.3 °C 43.2 °F /  6.2 °C
Humidity: 97 % 92 % 95 %
Wind Speed: 14.0 mph /  22.5 km/h - 5.5 mph /  8.9 km/h
Wind Gust: 19.0 mph /  30.6 km/h - -
Wind:- - WNW
Pressure: 30.26 in /  1024.6 hPa 30.07 in /  1018.2 hPa -
Precipitation: 0.17 in /  4.32 mm    
Historical Graphs
 
 
Tabular Data for January 15, 2017
Time Temperature Dew Point Pressure Wind Wind Speed Wind Gust Humidity Rainfall Rate (Hourly) solar Conditions
00:00 34.7 °F /  1.5 °C 32.6 °F /  0.3 °C 30.20 in /  1022.6 hPa Calm   10.0 mph /  16.1 km/h 92 % 0.00 in /  0 mm 0 W/m2
00:05 34.8 °F /  1.6 °C 32.7 °F /  0.4 °C 30.20 in /  1022.6 hPa Calm   10.0 mph /  16.1 km/h 92 % 0.00 in /  0 mm 0 W/m2
00:15 34.9 °F /  1.6 °C 33.1 °F /  0.6 °C 30.20 in /  1022.6 hPa Calm   2.0 mph /  3.2 km/h 93 % 0.00 in /  0 mm 0 W/m2
00:20 35.1 °F /  1.7 °C 33.3 °F /  0.7 °C 30.20 in /  1022.6 hPa NNW 1.0 mph /  1.6 km/h 1.0 mph /  1.6 km/h 93 % 0.00 in /  0 mm 0 W/m2
00:25 35.3 °F /  1.8 °C 33.5 °F /  0.8 °C 30.20 in /  1022.6 hPa NW 1.0 mph /  1.6 km/h 1.0 mph /  1.6 km/h 93 % 0.00 in /  0 mm 0 W/m2
00:35 35.8 °F /  2.1 °C 34.2 °F /  1.2 °C 30.20 in /  1022.6 hPa WNW 2.0 mph /  3.2 km/h 2.0 mph /  3.2 km/h 94 % 0.00 in /  0 mm 0 W/m2
00:40 36.1 °F /  2.3 °C 34.5 °F /  1.4 °C 30.20 in /  1022.6 hPa WNW 2.0 mph /  3.2 km/h 2.0 mph /  3.2 km/h 94 % 0.00 in /  0 mm 0 W/m2
00:45 36.4 °F /  2.4 °C 34.8 °F /  1.6 °C 30.20 in /  1022.6 hPa West 2.0 mph /  3.2 km/h 2.0 mph /  3.2 km/h 94 % 0.06 in /  1.52 mm 0 W/m2
00:50 36.6 °F /  2.6 °C 35.0 °F /  1.7 °C 30.20 in /  1022.6 hPa West 1.0 mph /  1.6 km/h 1.0 mph /  1.6 km/h 94 % 0.06 in /  1.52 mm 0 W/m2
00:55 36.8 °F /  2.7 °C 35.2 °F /  1.8 °C 30.20 in /  1022.6 hPa West 1.0 mph /  1.6 km/h 1.0 mph /  1.6 km/h 94 % 0.07 in /  1.78 mm 0 W/m2
01:00 37.0 °F /  2.8 °C 35.4 °F /  1.9 °C 30.20 in /  1022.6 hPa West 1.0 mph /  1.6 km/h 1.0 mph /  1.6 km/h 94 % 0.07 in /  1.78 mm 0 W/m2
01:05 37.0 °F /  2.8 °C 35.4 °F /  1.9 °C 30.20 in /  1022.6 hPa West 1.0 mph /  1.6 km/h 1.0 mph /  1.6 km/h 94 % 0.07 in /  1.78 mm 0 W/m2
01:15 37.0 °F /  2.8 °C 35.4 °F /  1.9 °C 30.19 in /  1022.2 hPa Calm   1.0 mph /  1.6 km/h 94 % 0.07 in /  1.78 mm 0 W/m2
01:20 37.1 °F /  2.8 °C 35.5 °F /  1.9 °C 30.19 in /  1022.2 hPa Calm   1.0 mph /  1.6 km/h 94 % 0.04 in /  1.02 mm 0 W/m2
01:25 37.0 °F /  2.8 °C 35.4 °F /  1.9 °C 30.19 in /  1022.2 hPa Calm   1.0 mph /  1.6 km/h 94 % 0.00 in /  0 mm 0 W/m2
01:30 36.9 °F /  2.7 °C 35.3 °F /  1.8 °C 30.19 in /  1022.2 hPa Calm   1.0 mph /  1.6 km/h 94 % 0.00 in /  0 mm 0 W/m2
01:35 36.9 °F /  2.7 °C 35.3 °F /  1.8 °C 30.19 in /  1022.2 hPa Calm   1.0 mph /  1.6 km/h 94 % 0.00 in /  0 mm 0 W/m2
01:40 36.9 °F /  2.7 °C 35.3 °F /  1.8 °C 30.18 in /  1021.9 hPa Calm   1.0 mph /  1.6 km/h 94 % 0.00 in /  0 mm 0 W/m2
01:50 36.9 °F /  2.7 °C 35.3 °F /  1.8 °C 30.18 in /  1021.9 hPa Calm   1.0 mph /  1.6 km/h 94 % 0.04 in /  1.02 mm 0 W/m2
02:00 36.8 °F /  2.7 °C 35.2 °F /  1.8 °C 30.18 in /  1021.9 hPa Calm   1.0 mph /  1.6 km/h 94 % 0.00 in /  0 mm 0 W/m2
02:05 36.9 °F /  2.7 °C 35.3 °F /  1.8 °C 30.18 in /  1021.9 hPa Calm   1.0 mph /  1.6 km/h 94 % 0.00 in /  0 mm 0 W/m2
02:10 36.9 °F /  2.7 °C 35.6 °F /  2 °C 30.18 in /  1021.9 hPa Calm   1.0 mph /  1.6 km/h 95 % 0.00 in /  0 mm 0 W/m2
02:15 36.9 °F /  2.7 °C 35.6 °F /  2 °C 30.18 in /  1021.9 hPa Calm   1.0 mph /  1.6 km/h 95 % 0.00 in /  0 mm 0 W/m2
02:20 36.9 °F /  2.7 °C 35.6 °F /  2 °C 30.18 in /  1021.9 hPa Calm   1.0 mph /  1.6 km/h 95 % 0.00 in /  0 mm 0 W/m2
02:25 36.9 °F /  2.7 °C 35.6 °F /  2 °C 30.18 in /  1021.9 hPa Calm   1.0 mph /  1.6 km/h 95 % 0.00 in /  0 mm 0 W/m2
02:30 37.0 °F /  2.8 °C 35.7 °F /  2.1 °C 30.17 in /  1021.6 hPa Calm   1.0 mph /  1.6 km/h 95 % 0.00 in /  0 mm 0 W/m2
02:40 37.0 °F /  2.8 °C 35.7 °F /  2.1 °C 30.17 in /  1021.6 hPa Calm   1.0 mph /  1.6 km/h 95 % 0.00 in /  0 mm 0 W/m2
02:45 37.0 °F /  2.8 °C 35.7 °F /  2.1 °C 30.17 in /  1021.6 hPa Calm   1.0 mph /  1.6 km/h 95 % 0.00 in /  0 mm 0 W/m2
02:50 37.1 °F /  2.8 °C 35.8 °F /  2.1 °C 30.17 in /  1021.6 hPa Calm   1.0 mph /  1.6 km/h 95 % 0.00 in /  0 mm 0 W/m2
02:55 37.1 °F /  2.8 °C 35.8 °F /  2.1 °C 30.17 in /  1021.6 hPa Calm   1.0 mph /  1.6 km/h 95 % 0.00 in /  0 mm 0 W/m2
03:05 37.1 °F /  2.8 °C 35.8 °F /  2.1 °C 30.17 in /  1021.6 hPa Calm   1.0 mph /  1.6 km/h 95 % 0.00 in /  0 mm 0 W/m2
03:10 37.1 °F /  2.8 °C 35.8 °F /  2.1 °C 30.17 in /  1021.6 hPa Calm   1.0 mph /  1.6 km/h 95 % 0.00 in /  0 mm 0 W/m2
03:15 37.1 °F /  2.8 °C 35.8 °F /  2.1 °C 30.17 in /  1021.6 hPa Calm   1.0 mph /  1.6 km/h 95 % 0.00 in /  0 mm 0 W/m2
03:20 37.2 °F /  2.9 °C 35.9 °F /  2.2 °C 30.16 in /  1021.2 hPa Calm   1.0 mph /  1.6 km/h 95 % 0.00 in /  0 mm 0 W/m2
03:30 37.2 °F /  2.9 °C 35.9 °F /  2.2 °C 30.16 in /  1021.2 hPa Calm   1.0 mph /  1.6 km/h 95 % 0.00 in /  0 mm 0 W/m2
03:35 37.3 °F /  2.9 °C 36.3 °F /  2.4 °C 30.16 in /  1021.2 hPa Calm   1.0 mph /  1.6 km/h 96 % 0.00 in /  0 mm 0 W/m2
03:40 37.4 °F /  3 °C 36.4 °F /  2.4 °C 30.16 in /  1021.2 hPa Calm   1.0 mph /  1.6 km/h 96 % 0.00 in /  0 mm 0 W/m2
03:45 37.4 °F /  3 °C 36.4 °F /  2.4 °C 30.16 in /  1021.2 hPa Calm   1.0 mph /  1.6 km/h 96 % 0.00 in /  0 mm 0 W/m2
03:50 37.4 °F /  3 °C 36.4 °F /  2.4 °C 30.16 in /  1021.2 hPa Calm   1.0 mph /  1.6 km/h 96 % 0.00 in /  0 mm 0 W/m2
03:55 37.5 °F /  3.1 °C 36.5 °F /  2.5 °C 30.16 in /  1021.2 hPa Calm   1.0 mph /  1.6 km/h 96 % 0.00 in /  0 mm 0 W/m2
04:05 37.6 °F /  3.1 °C 36.6 °F /  2.6 °C 30.15 in /  1020.9 hPa Calm   1.0 mph /  1.6 km/h 96 % 0.00 in /  0 mm 0 W/m2
04:10 37.7 °F /  3.2 °C 36.7 °F /  2.6 °C 30.15 in /  1020.9 hPa Calm   1.0 mph /  1.6 km/h 96 % 0.00 in /  0 mm 0 W/m2
04:15 37.8 °F /  3.2 °C 36.8 °F /  2.7 °C 30.15 in /  1020.9 hPa Calm   1.0 mph /  1.6 km/h 96 % 0.00 in /  0 mm 0 W/m2
04:20 37.9 °F /  3.3 °C 36.9 °F /  2.7 °C 30.15 in /  1020.9 hPa Calm   1.0 mph /  1.6 km/h 96 % 0.00 in /  0 mm 0 W/m2
04:25 38.0 °F /  3.3 °C 37.0 °F /  2.8 °C 30.14 in /  1020.5 hPa Calm   1.0 mph /  1.6 km/h 96 % 0.00 in /  0 mm 0 W/m2
04:35 38.1 °F /  3.4 °C 37.1 °F /  2.8 °C 30.14 in /  1020.5 hPa Calm   1.0 mph /  1.6 km/h 96 % 0.00 in /  0 mm 0 W/m2
04:45 38.1 °F /  3.4 °C 37.1 °F /  2.8 °C 30.13 in /  1020.2 hPa Calm   1.0 mph /  1.6 km/h 96 % 0.00 in /  0 mm 0 W/m2
04:50 38.2 °F /  3.4 °C 37.2 °F /  2.9 °C 30.13 in /  1020.2 hPa Calm   1.0 mph /  1.6 km/h 96 % 0.00 in /  0 mm 0 W/m2
04:55 38.2 °F /  3.4 °C 37.2 °F /  2.9 °C 30.13 in /  1020.2 hPa Calm   1.0 mph /  1.6 km/h 96 % 0.00 in /  0 mm 0 W/m2
05:05 38.3 °F /  3.5 °C 37.3 °F /  2.9 °C 30.12 in /  1019.9 hPa Calm   1.0 mph /  1.6 km/h 96 % 0.00 in /  0 mm 0 W/m2
05:10 38.3 °F /  3.5 °C 37.3 °F /  2.9 °C 30.12 in /  1019.9 hPa Calm   1.0 mph /  1.6 km/h 96 % 0.00 in /  0 mm 0 W/m2
05:15 38.3 °F /  3.5 °C 37.3 °F /  2.9 °C 30.12 in /  1019.9 hPa Calm   1.0 mph /  1.6 km/h 96 % 0.00 in /  0 mm 0 W/m2
05:20 38.4 °F /  3.6 °C 37.4 °F /  3 °C 30.12 in /  1019.9 hPa Calm   1.0 mph /  1.6 km/h 96 % 0.00 in /  0 mm 0 W/m2
05:25 38.4 °F /  3.6 °C 37.4 °F /  3 °C 30.11 in /  1019.5 hPa Calm   1.0 mph /  1.6 km/h 96 % 0.00 in /  0 mm 0 W/m2
05:30 38.5 °F /  3.6 °C 37.5 °F /  3.1 °C 30.11 in /  1019.5 hPa Calm   1.0 mph /  1.6 km/h 96 % 0.00 in /  0 mm 0 W/m2
05:35 38.6 °F /  3.7 °C 37.6 °F /  3.1 °C 30.11 in /  1019.5 hPa Calm   1.0 mph /  1.6 km/h 96 % 0.00 in /  0 mm 0 W/m2
05:40 38.8 °F /  3.8 °C 37.8 °F /  3.2 °C 30.11 in /  1019.5 hPa WSW 1.0 mph /  1.6 km/h 1.0 mph /  1.6 km/h 96 % 0.00 in /  0 mm 0 W/m2
05:50 39.7 °F /  4.3 °C 38.9 °F /  3.8 °C 30.11 in /  1019.5 hPa West 4.0 mph /  6.4 km/h 4.0 mph /  6.4 km/h 97 % 0.00 in /  0 mm 0 W/m2
05:55 40.1 °F /  4.5 °C 39.3 °F /  4.1 °C 30.10 in /  1019.2 hPa West 5.0 mph /  8 km/h 5.0 mph /  8 km/h 97 % 0.00 in /  0 mm 0 W/m2
06:00 40.4 °F /  4.7 °C 39.6 °F /  4.2 °C 30.10 in /  1019.2 hPa West 6.0 mph /  9.7 km/h 10.0 mph /  16.1 km/h 97 % 0.00 in /  0 mm 0 W/m2
06:05 40.7 °F /  4.8 °C 39.9 °F /  4.4 °C 30.10 in /  1019.2 hPa West 7.0 mph /  11.3 km/h 10.0 mph /  16.1 km/h 97 % 0.00 in /  0 mm 0 W/m2
06:10 40.9 °F /  4.9 °C 39.8 °F /  4.3 °C 30.10 in /  1019.2 hPa WNW 7.0 mph /  11.3 km/h 8.0 mph /  12.9 km/h 96 % 0.00 in /  0 mm 0 W/m2
06:15 41.0 °F /  5 °C 39.9 °F /  4.4 °C 30.10 in /  1019.2 hPa West 7.0 mph /  11.3 km/h 8.0 mph /  12.9 km/h 96 % 0.00 in /  0 mm 0 W/m2
06:20 41.1 °F /  5.1 °C 40.0 °F /  4.4 °C 30.10 in /  1019.2 hPa West 6.0 mph /  9.7 km/h 6.0 mph /  9.7 km/h 96 % 0.00 in /  0 mm 0 W/m2
06:30 41.3 °F /  5.2 °C 40.2 °F /  4.6 °C 30.09 in /  1018.8 hPa West 5.0 mph /  8 km/h 6.0 mph /  9.7 km/h 96 % 0.00 in /  0 mm 0 W/m2
06:35 41.3 °F /  5.2 °C 40.2 °F /  4.6 °C 30.09 in /  1018.8 hPa West 6.0 mph /  9.7 km/h 6.0 mph /  9.7 km/h 96 % 0.00 in /  0 mm 0 W/m2
06:40 41.4 °F /  5.2 °C 40.3 °F /  4.6 °C 30.09 in /  1018.8 hPa West 6.0 mph /  9.7 km/h 6.0 mph /  9.7 km/h 96 % 0.00 in /  0 mm 0 W/m2
06:45 41.5 °F /  5.3 °C 40.4 °F /  4.7 °C 30.09 in /  1018.8 hPa WSW 6.0 mph /  9.7 km/h 6.0 mph /  9.7 km/h 96 % 0.00 in /  0 mm 0 W/m2
06:50 41.5 °F /  5.3 °C 40.4 °F /  4.7 °C 30.09 in /  1018.8 hPa West 5.0 mph /  8 km/h 5.0 mph /  8 km/h 96 % 0.00 in /  0 mm 0 W/m2
06:55 41.7 °F /  5.4 °C 40.6 °F /  4.8 °C 30.08 in /  1018.5 hPa West 6.0 mph /  9.7 km/h 9.0 mph /  14.5 km/h 96 % 0.00 in /  0 mm 0 W/m2
07:00 42.0 °F /  5.6 °C 40.9 °F /  4.9 °C 30.08 in /  1018.5 hPa WNW 7.0 mph /  11.3 km/h 9.0 mph /  14.5 km/h 96 % 0.00 in /  0 mm 0 W/m2
07:05 42.5 °F /  5.8 °C 41.4 °F /  5.2 °C 30.08 in /  1018.5 hPa WNW 10.0 mph /  16.1 km/h 10.0 mph /  16.1 km/h 96 % 0.00 in /  0 mm 0 W/m2
07:10 42.9 °F /  6.1 °C 41.8 °F /  5.4 °C 30.08 in /  1018.5 hPa WNW 11.0 mph /  17.7 km/h 13.0 mph /  20.9 km/h 96 % 0.00 in /  0 mm 0 W/m2
07:20 43.3 °F /  6.3 °C 42.2 °F /  5.7 °C 30.08 in /  1018.5 hPa NW 11.0 mph /  17.7 km/h 11.0 mph /  17.7 km/h 96 % 0.00 in /  0 mm 0 W/m2
07:25 43.4 °F /  6.3 °C 42.3 °F /  5.7 °C 30.08 in /  1018.5 hPa WNW 12.0 mph /  19.3 km/h 12.0 mph /  19.3 km/h 96 % 0.00 in /  0 mm 0 W/m2
07:30 43.6 °F /  6.4 °C 42.3 °F /  5.7 °C 30.08 in /  1018.5 hPa West 12.0 mph /  19.3 km/h 12.0 mph /  19.3 km/h 95 % 0.00 in /  0 mm 0 W/m2
07:40 43.8 °F /  6.6 °C 42.5 °F /  5.8 °C 30.08 in /  1018.5 hPa WNW 13.0 mph /  20.9 km/h 13.0 mph /  20.9 km/h 95 % 0.00 in /  0 mm 0 W/m2
07:45 43.9 °F /  6.6 °C 42.6 °F /  5.9 °C 30.08 in /  1018.5 hPa WNW 13.0 mph /  20.9 km/h 13.0 mph /  20.9 km/h 95 % 0.00 in /  0 mm 0 W/m2
07:50 44.1 °F /  6.7 °C 42.8 °F /  6 °C 30.08 in /  1018.5 hPa WNW 13.0 mph /  20.9 km/h 15.0 mph /  24.1 km/h 95 % 0.00 in /  0 mm 0 W/m2
07:55 44.2 °F /  6.8 °C 42.9 °F /  6.1 °C 30.08 in /  1018.5 hPa NW 13.0 mph /  20.9 km/h 15.0 mph /  24.1 km/h 95 % 0.00 in /  0 mm 0 W/m2
08:00 44.3 °F /  6.8 °C 43.0 °F /  6.1 °C 30.08 in /  1018.5 hPa WNW 13.0 mph /  20.9 km/h 13.0 mph /  20.9 km/h 95 % 0.00 in /  0 mm 0 W/m2
08:05 44.4 °F /  6.9 °C 43.1 °F /  6.2 °C 30.08 in /  1018.5 hPa West 13.0 mph /  20.9 km/h 13.0 mph /  20.9 km/h 95 % 0.00 in /  0 mm 0 W/m2
08:10 44.6 °F /  7 °C 43.3 °F /  6.3 °C 30.07 in /  1018.2 hPa WNW 14.0 mph /  22.5 km/h 16.0 mph /  25.7 km/h 95 % 0.00 in /  0 mm 0 W/m2
08:20 44.7 °F /  7.1 °C 43.1 °F /  6.2 °C 30.08 in /  1018.5 hPa WNW 14.0 mph /  22.5 km/h 14.0 mph /  22.5 km/h 94 % 0.00 in /  0 mm 0 W/m2
08:25 44.7 °F /  7.1 °C 43.1 °F /  6.2 °C 30.08 in /  1018.5 hPa West 13.0 mph /  20.9 km/h 14.0 mph /  22.5 km/h 94 % 0.00 in /  0 mm 0 W/m2
08:30 44.7 °F /  7.1 °C 43.1 °F /  6.2 °C 30.08 in /  1018.5 hPa NW 12.0 mph /  19.3 km/h 16.0 mph /  25.7 km/h 94 % 0.00 in /  0 mm 5 W/m2
08:35 44.8 °F /  7.1 °C 43.2 °F /  6.2 °C 30.08 in /  1018.5 hPa WNW 12.0 mph /  19.3 km/h 16.0 mph /  25.7 km/h 94 % 0.00 in /  0 mm 7 W/m2
08:40 44.8 °F /  7.1 °C 43.2 °F /  6.2 °C 30.08 in /  1018.5 hPa WSW 12.0 mph /  19.3 km/h 12.0 mph /  19.3 km/h 94 % 0.00 in /  0 mm 7 W/m2
08:45 45.0 °F /  7.2 °C 43.4 °F /  6.3 °C 30.09 in /  1018.8 hPa WNW 12.0 mph /  19.3 km/h 12.0 mph /  19.3 km/h 94 % 0.00 in /  0 mm 9 W/m2
08:50 45.1 °F /  7.3 °C 43.5 °F /  6.4 °C 30.09 in /  1018.8 hPa WNW 13.0 mph /  20.9 km/h 13.0 mph /  20.9 km/h 94 % 0.00 in /  0 mm 11 W/m2
09:00 45.3 °F /  7.4 °C 43.7 °F /  6.5 °C 30.09 in /  1018.8 hPa WNW 12.0 mph /  19.3 km/h 12.0 mph /  19.3 km/h 94 % 0.00 in /  0 mm 14 W/m2
09:05 45.4 °F /  7.4 °C 43.8 °F /  6.6 °C 30.09 in /  1018.8 hPa NW 12.0 mph /  19.3 km/h 12.0 mph /  19.3 km/h 94 % 0.00 in /  0 mm 9 W/m2
09:10 45.5 °F /  7.5 °C 43.9 °F /  6.6 °C 30.08 in /  1018.5 hPa WNW 12.0 mph /  19.3 km/h 12.0 mph /  19.3 km/h 94 % 0.00 in /  0 mm 18 W/m2
09:15 45.5 °F /  7.5 °C 43.9 °F /  6.6 °C 30.09 in /  1018.8 hPa WNW 13.0 mph /  20.9 km/h 13.0 mph /  20.9 km/h 94 % 0.00 in /  0 mm 21 W/m2
09:20 45.6 °F /  7.6 °C 44.0 °F /  6.7 °C 30.08 in /  1018.5 hPa West 14.0 mph /  22.5 km/h 14.0 mph /  22.5 km/h 94 % 0.00 in /  0 mm 28 W/m2
09:25 45.7 °F /  7.6 °C 44.1 °F /  6.7 °C 30.08 in /  1018.5 hPa WNW 13.0 mph /  20.9 km/h 18.0 mph /  29 km/h 94 % 0.00 in /  0 mm 26 W/m2
09:30 45.7 °F /  7.6 °C 44.1 °F /  6.7 °C 30.08 in /  1018.5 hPa WNW 13.0 mph /  20.9 km/h 13.0 mph /  20.9 km/h 94 % 0.00 in /  0 mm 25 W/m2
09:40 45.9 °F /  7.7 °C 44.3 °F /  6.8 °C 30.09 in /  1018.8 hPa WNW 14.0 mph /  22.5 km/h 14.0 mph /  22.5 km/h 94 % 0.00 in /  0 mm 37 W/m2
09:45 46.0 °F /  7.8 °C 44.4 °F /  6.9 °C 30.08 in /  1018.5 hPa NW 13.0 mph /  20.9 km/h 14.0 mph /  22.5 km/h 94 % 0.00 in /  0 mm 47 W/m2
09:50 46.1 °F /  7.8 °C 44.5 °F /  6.9 °C 30.08 in /  1018.5 hPa WNW 13.0 mph /  20.9 km/h 13.0 mph /  20.9 km/h 94 % 0.00 in /  0 mm 54 W/m2
09:55 46.2 °F /  7.9 °C 44.6 °F /  7 °C 30.08 in /  1018.5 hPa WSW 14.0 mph /  22.5 km/h 15.0 mph /  24.1 km/h 94 % 0.00 in /  0 mm 46 W/m2
10:00 46.3 °F /  7.9 °C 44.7 °F /  7.1 °C 30.09 in /  1018.8 hPa NW 14.0 mph /  22.5 km/h 14.0 mph /  22.5 km/h 94 % 0.00 in /  0 mm 60 W/m2
10:05 46.4 °F /  8 °C 44.8 °F /  7.1 °C 30.09 in /  1018.8 hPa West 14.0 mph /  22.5 km/h 14.0 mph /  22.5 km/h 94 % 0.00 in /  0 mm 60 W/m2
10:15 46.6 °F /  8.1 °C 45.0 °F /  7.2 °C 30.09 in /  1018.8 hPa WNW 13.0 mph /  20.9 km/h 15.0 mph /  24.1 km/h 94 % 0.00 in /  0 mm 60 W/m2
10:20 46.7 °F /  8.2 °C 45.1 °F /  7.3 °C 30.09 in /  1018.8 hPa NNW 12.0 mph /  19.3 km/h 12.0 mph /  19.3 km/h 94 % 0.00 in /  0 mm 76 W/m2
10:25 46.7 °F /  8.2 °C 45.1 °F /  7.3 °C 30.10 in /  1019.2 hPa NW 12.0 mph /  19.3 km/h 12.0 mph /  19.3 km/h 94 % 0.00 in /  0 mm 62 W/m2
10:35 46.9 °F /  8.3 °C 45.5 °F /  7.5 °C 30.09 in /  1018.8 hPa WNW 13.0 mph /  20.9 km/h 16.0 mph /  25.7 km/h 95 % 0.00 in /  0 mm 72 W/m2
10:40 47.0 °F /  8.3 °C 45.4 °F /  7.4 °C 30.10 in /  1019.2 hPa WNW 13.0 mph /  20.9 km/h 15.0 mph /  24.1 km/h 94 % 0.00 in /  0 mm 70 W/m2
10:45 47.0 °F /  8.3 °C 45.4 °F /  7.4 °C 30.10 in /  1019.2 hPa WNW 12.0 mph /  19.3 km/h 15.0 mph /  24.1 km/h 94 % 0.00 in /  0 mm 83 W/m2
10:50 47.1 °F /  8.4 °C 45.5 °F /  7.5 °C 30.10 in /  1019.2 hPa NW 12.0 mph /  19.3 km/h 12.0 mph /  19.3 km/h 94 % 0.00 in /  0 mm 54 W/m2
11:00 47.0 °F /  8.3 °C 45.4 °F /  7.4 °C 30.10 in /  1019.2 hPa WNW 11.0 mph /  17.7 km/h 19.0 mph /  30.6 km/h 94 % 0.00 in /  0 mm 47 W/m2
11:05 47.1 °F /  8.4 °C 45.7 °F /  7.6 °C 30.10 in /  1019.2 hPa WNW 12.0 mph /  19.3 km/h 19.0 mph /  30.6 km/h 95 % 0.00 in /  0 mm 58 W/m2
11:10 47.1 °F /  8.4 °C 45.7 °F /  7.6 °C 30.10 in /  1019.2 hPa West 12.0 mph /  19.3 km/h 12.0 mph /  19.3 km/h 95 % 0.00 in /  0 mm 54 W/m2
11:15 47.1 °F /  8.4 °C 45.7 °F /  7.6 °C 30.10 in /  1019.2 hPa WNW 12.0 mph /  19.3 km/h 12.0 mph /  19.3 km/h 95 % 0.00 in /  0 mm 81 W/m2
11:20 47.2 °F /  8.4 °C 45.8 °F /  7.7 °C 30.10 in /  1019.2 hPa NW 10.0 mph /  16.1 km/h 10.0 mph /  16.1 km/h 95 % 0.00 in /  0 mm 90 W/m2
11:25 47.3 °F /  8.5 °C 45.9 °F /  7.7 °C 30.10 in /  1019.2 hPa WNW 10.0 mph /  16.1 km/h 10.0 mph /  16.1 km/h 95 % 0.00 in /  0 mm 79 W/m2
11:35 47.4 °F /  8.6 °C 46.0 °F /  7.8 °C 30.09 in /  1018.8 hPa WNW 11.0 mph /  17.7 km/h 11.0 mph /  17.7 km/h 95 % 0.00 in /  0 mm 67 W/m2
11:40 47.5 °F /  8.6 °C 46.1 °F /  7.8 °C 30.09 in /  1018.8 hPa West 11.0 mph /  17.7 km/h 15.0 mph /  24.1 km/h 95 % 0.00 in /  0 mm 109 W/m2
11:45 47.5 °F /  8.6 °C 46.1 °F /  7.8 °C 30.10 in /  1019.2 hPa West 12.0 mph /  19.3 km/h 15.0 mph /  24.1 km/h 95 % 0.00 in /  0 mm 60 W/m2
11:50 47.5 °F /  8.6 °C 46.1 °F /  7.8 °C 30.10 in /  1019.2 hPa WNW 12.0 mph /  19.3 km/h 12.0 mph /  19.3 km/h 95 % 0.00 in /  0 mm 62 W/m2
11:55 47.5 °F /  8.6 °C 46.1 °F /  7.8 °C 30.10 in /  1019.2 hPa WNW 12.0 mph /  19.3 km/h 13.0 mph /  20.9 km/h 95 % 0.00 in /  0 mm 72 W/m2
12:00 47.6 °F /  8.7 °C 46.2 °F /  7.9 °C 30.10 in /  1019.2 hPa NNW 12.0 mph /  19.3 km/h 12.0 mph /  19.3 km/h 95 % 0.00 in /  0 mm 76 W/m2
12:05 47.6 °F /  8.7 °C 46.2 °F /  7.9 °C 30.10 in /  1019.2 hPa WNW 11.0 mph /  17.7 km/h 12.0 mph /  19.3 km/h 95 % 0.00 in /  0 mm 109 W/m2
12:10 47.7 °F /  8.7 °C 46.3 °F /  7.9 °C 30.10 in /  1019.2 hPa WNW 10.0 mph /  16.1 km/h 10.0 mph /  16.1 km/h 95 % 0.00 in /  0 mm 100 W/m2
12:15 47.8 °F /  8.8 °C 46.4 °F /  8 °C 30.10 in /  1019.2 hPa NW 10.0 mph /  16.1 km/h 11.0 mph /  17.7 km/h 95 % 0.00 in /  0 mm 104 W/m2
12:20 47.9 °F /  8.8 °C 46.5 °F /  8.1 °C 30.10 in /  1019.2 hPa WNW 10.0 mph /  16.1 km/h 12.0 mph /  19.3 km/h 95 % 0.00 in /  0 mm 88 W/m2
12:25 47.9 °F /  8.8 °C 46.5 °F /  8.1 °C 30.10 in /  1019.2 hPa NW 10.0 mph /  16.1 km/h 12.0 mph /  19.3 km/h 95 % 0.00 in /  0 mm 146 W/m2
12:35 48.1 °F /  8.9 °C 46.7 °F /  8.2 °C 30.11 in /  1019.5 hPa WNW 10.0 mph /  16.1 km/h 10.0 mph /  16.1 km/h 95 % 0.00 in /  0 mm 105 W/m2
12:40 48.2 °F /  9 °C 46.8 °F /  8.2 °C 30.11 in /  1019.5 hPa WNW 11.0 mph /  17.7 km/h 12.0 mph /  19.3 km/h 95 % 0.00 in /  0 mm 135 W/m2
12:50 48.3 °F /  9.1 °C 46.9 °F /  8.3 °C 30.11 in /  1019.5 hPa WNW 10.0 mph /  16.1 km/h 10.0 mph /  16.1 km/h 95 % 0.00 in /  0 mm 128 W/m2
12:55 48.4 °F /  9.1 °C 47.0 °F /  8.3 °C 30.11 in /  1019.5 hPa West 10.0 mph /  16.1 km/h 13.0 mph /  20.9 km/h 95 % 0.00 in /  0 mm 111 W/m2
13:00 48.4 °F /  9.1 °C 47.0 °F /  8.3 °C 30.11 in /  1019.5 hPa NW 10.0 mph /  16.1 km/h 10.0 mph /  16.1 km/h 95 % 0.00 in /  0 mm 100 W/m2
13:05 48.5 °F /  9.2 °C 47.1 °F /  8.4 °C 30.11 in /  1019.5 hPa WNW 11.0 mph /  17.7 km/h 15.0 mph /  24.1 km/h 95 % 0.00 in /  0 mm 120 W/m2
13:10 48.5 °F /  9.2 °C 47.1 °F /  8.4 °C 30.11 in /  1019.5 hPa NW 11.0 mph /  17.7 km/h 11.0 mph /  17.7 km/h 95 % 0.00 in /  0 mm 102 W/m2
13:15 48.5 °F /  9.2 °C 47.1 °F /  8.4 °C 30.11 in /  1019.5 hPa WNW 10.0 mph /  16.1 km/h 12.0 mph /  19.3 km/h 95 % 0.00 in /  0 mm 113 W/m2
13:25 48.6 °F /  9.2 °C 47.0 °F /  8.3 °C 30.11 in /  1019.5 hPa NW 10.0 mph /  16.1 km/h 11.0 mph /  17.7 km/h 94 % 0.00 in /  0 mm 91 W/m2
13:30 48.6 °F /  9.2 °C 47.0 °F /  8.3 °C 30.11 in /  1019.5 hPa NW 10.0 mph /  16.1 km/h 10.0 mph /  16.1 km/h 94 % 0.00 in /  0 mm 95 W/m2
13:35 48.6 °F /  9.2 °C 47.0 °F /  8.3 °C 30.11 in /  1019.5 hPa WNW 10.0 mph /  16.1 km/h 10.0 mph /  16.1 km/h 94 % 0.00 in /  0 mm 88 W/m2
13:40 48.7 °F /  9.3 °C 47.1 °F /  8.4 °C 30.11 in /  1019.5 hPa NW 10.0 mph /  16.1 km/h 10.0 mph /  16.1 km/h 94 % 0.00 in /  0 mm 84 W/m2
13:50 48.7 °F /  9.3 °C 47.1 °F /  8.4 °C 30.11 in /  1019.5 hPa NW 9.0 mph /  14.5 km/h 9.0 mph /  14.5 km/h 94 % 0.00 in /  0 mm 128 W/m2
14:00 48.9 °F /  9.4 °C 47.2 °F /  8.4 °C 30.12 in /  1019.9 hPa West 10.0 mph /  16.1 km/h 10.0 mph /  16.1 km/h 94 % 0.00 in /  0 mm 121 W/m2
14:05 49.0 °F /  9.4 °C 47.3 °F /  8.5 °C 30.12 in /  1019.9 hPa WNW 9.0 mph /  14.5 km/h 10.0 mph /  16.1 km/h 94 % 0.00 in /  0 mm 97 W/m2
14:10 49.0 °F /  9.4 °C 47.3 °F /  8.5 °C 30.12 in /  1019.9 hPa West 9.0 mph /  14.5 km/h 9.0 mph /  14.5 km/h 94 % 0.00 in /  0 mm 42 W/m2
14:15 49.0 °F /  9.4 °C 47.3 °F /  8.5 °C 30.12 in /  1019.9 hPa WNW 9.0 mph /  14.5 km/h 9.0 mph /  14.5 km/h 94 % 0.00 in /  0 mm 54 W/m2
14:20 49.0 °F /  9.4 °C 47.3 °F /  8.5 °C 30.13 in /  1020.2 hPa WNW 9.0 mph /  14.5 km/h 10.0 mph /  16.1 km/h 94 % 0.00 in /  0 mm 70 W/m2
14:25 49.0 °F /  9.4 °C 47.3 °F /  8.5 °C 30.12 in /  1019.9 hPa WNW 9.0 mph /  14.5 km/h 11.0 mph /  17.7 km/h 94 % 0.00 in /  0 mm 135 W/m2
14:30 49.1 °F /  9.5 °C 47.4 °F /  8.6 °C 30.12 in /  1019.9 hPa NW 9.0 mph /  14.5 km/h 9.0 mph /  14.5 km/h 94 % 0.00 in /  0 mm 86 W/m2
14:40 49.2 °F /  9.6 °C 47.5 °F /  8.6 °C 30.13 in /  1020.2 hPa WNW 7.0 mph /  11.3 km/h 9.0 mph /  14.5 km/h 94 % 0.00 in /  0 mm 63 W/m2
14:45 49.2 °F /  9.6 °C 47.5 °F /  8.6 °C 30.13 in /  1020.2 hPa WNW 7.0 mph /  11.3 km/h 9.0 mph /  14.5 km/h 94 % 0.00 in /  0 mm 79 W/m2
14:50 49.2 °F /  9.6 °C 47.5 °F /  8.6 °C 30.13 in /  1020.2 hPa WNW 8.0 mph /  12.9 km/h 9.0 mph /  14.5 km/h 94 % 0.00 in /  0 mm 76 W/m2
14:55 49.2 °F /  9.6 °C 47.5 °F /  8.6 °C 30.13 in /  1020.2 hPa WNW 7.0 mph /  11.3 km/h 9.0 mph /  14.5 km/h 94 % 0.00 in /  0 mm 58 W/m2
15:00 49.2 °F /  9.6 °C 47.5 °F /  8.6 °C 30.13 in /  1020.2 hPa WNW 8.0 mph /  12.9 km/h 8.0 mph /  12.9 km/h 94 % 0.00 in /  0 mm 53 W/m2
15:05 49.2 °F /  9.6 °C 47.3 °F /  8.5 °C 30.13 in /  1020.2 hPa WNW 8.0 mph /  12.9 km/h 8.0 mph /  12.9 km/h 93 % 0.00 in /  0 mm 58 W/m2
15:15 49.1 °F /  9.5 °C 47.2 °F /  8.4 °C 30.13 in /  1020.2 hPa NW 8.0 mph /  12.9 km/h 8.0 mph /  12.9 km/h 93 % 0.00 in /  0 mm 42 W/m2
15:20 49.1 °F /  9.5 °C 47.2 °F /  8.4 °C 30.14 in /  1020.5 hPa WNW 7.0 mph /  11.3 km/h 7.0 mph /  11.3 km/h 93 % 0.00 in /  0 mm 37 W/m2
15:25 48.9 °F /  9.4 °C 47.0 °F /  8.3 °C 30.14 in /  1020.5 hPa NW 7.0 mph /  11.3 km/h 7.0 mph /  11.3 km/h 93 % 0.00 in /  0 mm 26 W/m2
15:30 48.9 °F /  9.4 °C 47.0 °F /  8.3 °C 30.14 in /  1020.5 hPa WNW 7.0 mph /  11.3 km/h 7.0 mph /  11.3 km/h 93 % 0.00 in /  0 mm 32 W/m2
15:35 48.8 °F /  9.3 °C 46.9 °F /  8.3 °C 30.14 in /  1020.5 hPa WNW 7.0 mph /  11.3 km/h 8.0 mph /  12.9 km/h 93 % 0.00 in /  0 mm 30 W/m2
15:40 48.8 °F /  9.3 °C 46.9 °F /  8.3 °C 30.14 in /  1020.5 hPa WNW 7.0 mph /  11.3 km/h 7.0 mph /  11.3 km/h 93 % 0.00 in /  0 mm 23 W/m2
15:45 48.8 °F /  9.3 °C 46.9 °F /  8.3 °C 30.14 in /  1020.5 hPa NW 6.0 mph /  9.7 km/h 7.0 mph /  11.3 km/h 93 % 0.00 in /  0 mm 19 W/m2
15:55 48.7 °F /  9.3 °C 47.1 °F /  8.4 °C 30.15 in /  1020.9 hPa WNW 6.0 mph /  9.7 km/h 7.0 mph /  11.3 km/h 94 % 0.00 in /  0 mm 11 W/m2
16:00 48.7 °F /  9.3 °C 47.1 °F /  8.4 °C 30.15 in /  1020.9 hPa WNW 6.0 mph /  9.7 km/h 6.0 mph /  9.7 km/h 94 % 0.00 in /  0 mm 7 W/m2
16:05 48.7 °F /  9.3 °C 47.1 °F /  8.4 °C 30.15 in /  1020.9 hPa NW 6.0 mph /  9.7 km/h 6.0 mph /  9.7 km/h 94 % 0.00 in /  0 mm 5 W/m2
16:10 48.7 °F /  9.3 °C 47.1 °F /  8.4 °C 30.16 in /  1021.2 hPa NW 6.0 mph /  9.7 km/h 6.0 mph /  9.7 km/h 94 % 0.00 in /  0 mm 0 W/m2
16:15 48.7 °F /  9.3 °C 47.1 °F /  8.4 °C 30.16 in /  1021.2 hPa WNW 5.0 mph /  8 km/h 6.0 mph /  9.7 km/h 94 % 0.00 in /  0 mm 0 W/m2
16:20 48.7 °F /  9.3 °C 47.1 °F /  8.4 °C 30.16 in /  1021.2 hPa NW 5.0 mph /  8 km/h 5.0 mph /  8 km/h 94 % 0.00 in /  0 mm 0 W/m2
16:30 48.6 °F /  9.2 °C 47.0 °F /  8.3 °C 30.16 in /  1021.2 hPa WNW 4.0 mph /  6.4 km/h 4.0 mph /  6.4 km/h 94 % 0.00 in /  0 mm 0 W/m2
16:35 48.5 °F /  9.2 °C 46.9 °F /  8.3 °C 30.16 in /  1021.2 hPa WNW 5.0 mph /  8 km/h 5.0 mph /  8 km/h 94 % 0.00 in /  0 mm 0 W/m2
16:40 48.4 °F /  9.1 °C 46.8 °F /  8.2 °C 30.17 in /  1021.6 hPa WNW 4.0 mph /  6.4 km/h 5.0 mph /  8 km/h 94 % 0.00 in /  0 mm 0 W/m2
16:45 48.4 °F /  9.1 °C 46.8 °F /  8.2 °C 30.17 in /  1021.6 hPa WNW 5.0 mph /  8 km/h 5.0 mph /  8 km/h 94 % 0.00 in /  0 mm 0 W/m2
16:50 48.3 °F /  9.1 °C 46.7 °F /  8.2 °C 30.17 in /  1021.6 hPa WNW 5.0 mph /  8 km/h 5.0 mph /  8 km/h 94 % 0.00 in /  0 mm 0 W/m2
16:55 48.3 °F /  9.1 °C 46.7 °F /  8.2 °C 30.17 in /  1021.6 hPa WNW 5.0 mph /  8 km/h 6.0 mph /  9.7 km/h 94 % 0.00 in /  0 mm 0 W/m2
17:00 48.3 °F /  9.1 °C 46.7 °F /  8.2 °C 30.17 in /  1021.6 hPa NW 5.0 mph /  8 km/h 5.0 mph /  8 km/h 94 % 0.00 in /  0 mm 0 W/m2
17:10 48.2 °F /  9 °C 46.6 °F /  8.1 °C 30.17 in /  1021.6 hPa WNW 5.0 mph /  8 km/h 5.0 mph /  8 km/h 94 % 0.00 in /  0 mm 0 W/m2
17:15 48.2 °F /  9 °C 46.6 °F /  8.1 °C 30.17 in /  1021.6 hPa NW 4.0 mph /  6.4 km/h 5.0 mph /  8 km/h 94 % 0.00 in /  0 mm 0 W/m2
17:20 48.1 °F /  8.9 °C 46.5 °F /  8.1 °C 30.17 in /  1021.6 hPa NW 2.0 mph /  3.2 km/h 2.0 mph /  3.2 km/h 94 % 0.00 in /  0 mm 0 W/m2
17:25 48.1 °F /  8.9 °C 46.5 °F /  8.1 °C 30.18 in /  1021.9 hPa NW 1.0 mph /  1.6 km/h 2.0 mph /  3.2 km/h 94 % 0.00 in /  0 mm 0 W/m2
17:30 48.1 °F /  8.9 °C 46.5 °F /  8.1 °C 30.18 in /  1021.9 hPa NW 1.0 mph /  1.6 km/h 1.0 mph /  1.6 km/h 94 % 0.00 in /  0 mm 0 W/m2
17:35 48.0 °F /  8.9 °C 46.4 °F /  8 °C 30.18 in /  1021.9 hPa NW 1.0 mph /  1.6 km/h 4.0 mph /  6.4 km/h 94 % 0.00 in /  0 mm 0 W/m2
17:40 48.0 °F /  8.9 °C 46.4 °F /  8 °C 30.18 in /  1021.9 hPa NW 3.0 mph /  4.8 km/h 3.0 mph /  4.8 km/h 94 % 0.00 in /  0 mm 0 W/m2
17:50 47.9 °F /  8.8 °C 46.3 °F /  7.9 °C 30.19 in /  1022.2 hPa WNW 3.0 mph /  4.8 km/h 5.0 mph /  8 km/h 94 % 0.00 in /  0 mm 0 W/m2
17:55 47.9 °F /  8.8 °C 46.3 °F /  7.9 °C 30.19 in /  1022.2 hPa NW 4.0 mph /  6.4 km/h 5.0 mph /  8 km/h 94 % 0.00 in /  0 mm 0 W/m2
18:00 47.9 °F /  8.8 °C 46.3 °F /  7.9 °C 30.19 in /  1022.2 hPa WNW 4.0 mph /  6.4 km/h 4.0 mph /  6.4 km/h 94 % 0.00 in /  0 mm 0 W/m2
18:05 47.9 °F /  8.8 °C 46.3 °F /  7.9 °C 30.19 in /  1022.2 hPa NW 4.0 mph /  6.4 km/h 6.0 mph /  9.7 km/h 94 % 0.00 in /  0 mm 0 W/m2
18:10 47.9 °F /  8.8 °C 46.3 °F /  7.9 °C 30.19 in /  1022.2 hPa NW 5.0 mph /  8 km/h 5.0 mph /  8 km/h 94 % 0.00 in /  0 mm 0 W/m2
18:15 47.9 °F /  8.8 °C 46.3 °F /  7.9 °C 30.19 in /  1022.2 hPa NW 5.0 mph /  8 km/h 5.0 mph /  8 km/h 94 % 0.00 in /  0 mm 0 W/m2
18:20 47.9 °F /  8.8 °C 46.3 °F /  7.9 °C 30.19 in /  1022.2 hPa WNW 4.0 mph /  6.4 km/h 5.0 mph /  8 km/h 94 % 0.00 in /  0 mm 0 W/m2
18:30 47.9 °F /  8.8 °C 46.3 °F /  7.9 °C 30.19 in /  1022.2 hPa WNW 3.0 mph /  4.8 km/h 4.0 mph /  6.4 km/h 94 % 0.00 in /  0 mm 0 W/m2
18:35 47.9 °F /  8.8 °C 46.3 °F /  7.9 °C 30.19 in /  1022.2 hPa WNW 3.0 mph /  4.8 km/h 4.0 mph /  6.4 km/h 94 % 0.00 in /  0 mm 0 W/m2
18:40 47.8 °F /  8.8 °C 46.2 °F /  7.9 °C 30.20 in /  1022.6 hPa WNW 3.0 mph /  4.8 km/h 4.0 mph /  6.4 km/h 94 % 0.00 in /  0 mm 0 W/m2
18:45 47.8 °F /  8.8 °C 46.2 °F /  7.9 °C 30.19 in /  1022.2 hPa WNW 4.0 mph /  6.4 km/h 4.0 mph /  6.4 km/h 94 % 0.00 in /  0 mm 0 W/m2
18:50 47.8 °F /  8.8 °C 46.4 °F /  8 °C 30.20 in /  1022.6 hPa NW 4.0 mph /  6.4 km/h 4.0 mph /  6.4 km/h 95 % 0.00 in /  0 mm 0 W/m2
18:55 47.9 °F /  8.8 °C 46.5 °F /  8.1 °C 30.20 in /  1022.6 hPa NW 4.0 mph /  6.4 km/h 5.0 mph /  8 km/h 95 % 0.00 in /  0 mm 0 W/m2
19:00 47.9 °F /  8.8 °C 46.5 °F /  8.1 °C 30.20 in /  1022.6 hPa West 5.0 mph /  8 km/h 6.0 mph /  9.7 km/h 95 % 0.00 in /  0 mm 0 W/m2
19:10 48.0 °F /  8.9 °C 46.6 °F /  8.1 °C 30.20 in /  1022.6 hPa WNW 5.0 mph /  8 km/h 5.0 mph /  8 km/h 95 % 0.00 in /  0 mm 0 W/m2
19:15 48.0 °F /  8.9 °C 46.6 °F /  8.1 °C 30.20 in /  1022.6 hPa WNW 5.0 mph /  8 km/h 5.0 mph /  8 km/h 95 % 0.00 in /  0 mm 0 W/m2
19:20 48.1 °F /  8.9 °C 46.7 °F /  8.2 °C 30.20 in /  1022.6 hPa WNW 4.0 mph /  6.4 km/h 6.0 mph /  9.7 km/h 95 % 0.00 in /  0 mm 0 W/m2
19:25 48.1 °F /  8.9 °C 46.7 °F /  8.2 °C 30.21 in /  1022.9 hPa NW 5.0 mph /  8 km/h 6.0 mph /  9.7 km/h 95 % 0.00 in /  0 mm 0 W/m2
19:30 48.1 °F /  8.9 °C 46.7 °F /  8.2 °C 30.21 in /  1022.9 hPa NW 5.0 mph /  8 km/h 5.0 mph /  8 km/h 95 % 0.00 in /  0 mm 0 W/m2
19:40 48.1 °F /  8.9 °C 46.7 °F /  8.2 °C 30.21 in /  1022.9 hPa NW 5.0 mph /  8 km/h 5.0 mph /  8 km/h 95 % 0.00 in /  0 mm 0 W/m2
19:50 48.1 °F /  8.9 °C 46.7 °F /  8.2 °C 30.21 in /  1022.9 hPa NW 4.0 mph /  6.4 km/h 5.0 mph /  8 km/h 95 % 0.00 in /  0 mm 0 W/m2
19:55 48.1 °F /  8.9 °C 46.5 °F /  8.1 °C 30.21 in /  1022.9 hPa NW 5.0 mph /  8 km/h 5.0 mph /  8 km/h 94 % 0.00 in /  0 mm 0 W/m2
20:00 48.1 °F /  8.9 °C 46.5 °F /  8.1 °C 30.21 in /  1022.9 hPa NW 5.0 mph /  8 km/h 5.0 mph /  8 km/h 94 % 0.00 in /  0 mm 0 W/m2
20:05 48.1 °F /  8.9 °C 46.5 °F /  8.1 °C 30.21 in /  1022.9 hPa NW 5.0 mph /  8 km/h 7.0 mph /  11.3 km/h 94 % 0.00 in /  0 mm 0 W/m2
20:15 48.1 °F /  8.9 °C 46.5 °F /  8.1 °C 30.22 in /  1023.2 hPa NW 4.0 mph /  6.4 km/h 4.0 mph /  6.4 km/h 94 % 0.00 in /  0 mm 0 W/m2
20:20 48.1 °F /  8.9 °C 46.5 °F /  8.1 °C 30.22 in /  1023.2 hPa NW 4.0 mph /  6.4 km/h 6.0 mph /  9.7 km/h 94 % 0.00 in /  0 mm 0 W/m2
20:25 48.1 °F /  8.9 °C 46.5 °F /  8.1 °C 30.22 in /  1023.2 hPa NW 5.0 mph /  8 km/h 6.0 mph /  9.7 km/h 94 % 0.00 in /  0 mm 0 W/m2
20:30 48.1 °F /  8.9 °C 46.5 °F /  8.1 °C 30.22 in /  1023.2 hPa NW 4.0 mph /  6.4 km/h 4.0 mph /  6.4 km/h 94 % 0.00 in /  0 mm 0 W/m2
20:35 48.1 °F /  8.9 °C 46.5 °F /  8.1 °C 30.22 in /  1023.2 hPa WNW 4.0 mph /  6.4 km/h 5.0 mph /  8 km/h 94 % 0.00 in /  0 mm 0 W/m2
20:40 48.1 °F /  8.9 °C 46.5 °F /  8.1 °C 30.22 in /  1023.2 hPa NW 4.0 mph /  6.4 km/h 4.0 mph /  6.4 km/h 94 % 0.00 in /  0 mm 0 W/m2
20:50 48.2 °F /  9 °C 46.6 °F /  8.1 °C 30.22 in /  1023.2 hPa WNW 4.0 mph /  6.4 km/h 7.0 mph /  11.3 km/h 94 % 0.00 in /  0 mm 0 W/m2
20:55 48.2 °F /  9 °C 46.6 °F /  8.1 °C 30.22 in /  1023.2 hPa NW 5.0 mph /  8 km/h 7.0 mph /  11.3 km/h 94 % 0.00 in /  0 mm 0 W/m2
21:00 48.2 °F /  9 °C 46.6 °F /  8.1 °C 30.23 in /  1023.6 hPa NW 4.0 mph /  6.4 km/h 4.0 mph /  6.4 km/h 94 % 0.00 in /  0 mm 0 W/m2
21:10 48.2 °F /  9 °C 46.6 °F /  8.1 °C 30.23 in /  1023.6 hPa NW 3.0 mph /  4.8 km/h 3.0 mph /  4.8 km/h 94 % 0.00 in /  0 mm 0 W/m2
21:15 48.2 °F /  9 °C 46.6 °F /  8.1 °C 30.23 in /  1023.6 hPa NW 1.0 mph /  1.6 km/h 3.0 mph /  4.8 km/h 94 % 0.00 in /  0 mm 0 W/m2
21:20 48.1 °F /  8.9 °C 46.5 °F /  8.1 °C 30.23 in /  1023.6 hPa NNW 2.0 mph /  3.2 km/h 3.0 mph /  4.8 km/h 94 % 0.00 in /  0 mm 0 W/m2
21:25 48.1 °F /  8.9 °C 46.5 °F /  8.1 °C 30.23 in /  1023.6 hPa NW 2.0 mph /  3.2 km/h 3.0 mph /  4.8 km/h 94 % 0.00 in /  0 mm 0 W/m2
21:30 48.2 °F /  9 °C 46.6 °F /  8.1 °C 30.23 in /  1023.6 hPa NW 2.0 mph /  3.2 km/h 4.0 mph /  6.4 km/h 94 % 0.00 in /  0 mm 0 W/m2
21:35 48.1 °F /  8.9 °C 46.5 °F /  8.1 °C 30.24 in /  1023.9 hPa NW 1.0 mph /  1.6 km/h 4.0 mph /  6.4 km/h 94 % 0.00 in /  0 mm 0 W/m2
21:40 48.2 °F /  9 °C 46.6 °F /  8.1 °C 30.24 in /  1023.9 hPa NW 2.0 mph /  3.2 km/h 2.0 mph /  3.2 km/h 94 % 0.00 in /  0 mm 0 W/m2
21:45 48.1 °F /  8.9 °C 46.5 °F /  8.1 °C 30.24 in /  1023.9 hPa NNW 3.0 mph /  4.8 km/h 3.0 mph /  4.8 km/h 94 % 0.00 in /  0 mm 0 W/m2
21:55 48.2 °F /  9 °C 46.6 °F /  8.1 °C 30.24 in /  1023.9 hPa NNW 2.0 mph /  3.2 km/h 4.0 mph /  6.4 km/h 94 % 0.00 in /  0 mm 0 W/m2
22:00 48.2 °F /  9 °C 46.6 °F /  8.1 °C 30.24 in /  1023.9 hPa North 1.0 mph /  1.6 km/h 1.0 mph /  1.6 km/h 94 % 0.00 in /  0 mm 0 W/m2
22:05 48.2 °F /  9 °C 46.6 °F /  8.1 °C 30.24 in /  1023.9 hPa NNE 1.0 mph /  1.6 km/h 4.0 mph /  6.4 km/h 94 % 0.00 in /  0 mm 0 W/m2
22:10 48.2 °F /  9 °C 46.6 °F /  8.1 °C 30.24 in /  1023.9 hPa North 1.0 mph /  1.6 km/h 1.0 mph /  1.6 km/h 94 % 0.00 in /  0 mm 0 W/m2
22:15 48.1 °F /  8.9 °C 46.5 °F /  8.1 °C 30.25 in /  1024.3 hPa NNW 1.0 mph /  1.6 km/h 2.0 mph /  3.2 km/h 94 % 0.00 in /  0 mm 0 W/m2
22:20 48.1 °F /  8.9 °C 46.5 °F /  8.1 °C 30.25 in /  1024.3 hPa NNW 1.0 mph /  1.6 km/h 1.0 mph /  1.6 km/h 94 % 0.00 in /  0 mm 0 W/m2
22:25 48.1 °F /  8.9 °C 46.5 °F /  8.1 °C 30.25 in /  1024.3 hPa Calm   1.0 mph /  1.6 km/h 94 % 0.00 in /  0 mm 0 W/m2
22:30 48.0 °F /  8.9 °C 46.4 °F /  8 °C 30.25 in /  1024.3 hPa Calm   1.0 mph /  1.6 km/h 94 % 0.00 in /  0 mm 0 W/m2
22:40 48.0 °F /  8.9 °C 46.4 °F /  8 °C 30.25 in /  1024.3 hPa Calm   1.0 mph /  1.6 km/h 94 % 0.00 in /  0 mm 0 W/m2
22:45 47.9 °F /  8.8 °C 46.3 °F /  7.9 °C 30.25 in /  1024.3 hPa Calm   1.0 mph /  1.6 km/h 94 % 0.00 in /  0 mm 0 W/m2
22:50 47.9 °F /  8.8 °C 46.3 °F /  7.9 °C 30.25 in /  1024.3 hPa Calm   1.0 mph /  1.6 km/h 94 % 0.00 in /  0 mm 0 W/m2
22:55 47.9 °F /  8.8 °C 46.3 °F /  7.9 °C 30.25 in /  1024.3 hPa Calm   1.0 mph /  1.6 km/h 94 % 0.00 in /  0 mm 0 W/m2
23:00 47.8 °F /  8.8 °C 46.2 °F /  7.9 °C 30.25 in /  1024.3 hPa Calm   1.0 mph /  1.6 km/h 94 % 0.00 in /  0 mm 0 W/m2
23:05 47.7 °F /  8.7 °C 46.1 °F /  7.8 °C 30.25 in /  1024.3 hPa Calm   1.0 mph /  1.6 km/h 94 % 0.00 in /  0 mm 0 W/m2
23:15 47.6 °F /  8.7 °C 46.2 °F /  7.9 °C 30.26 in /  1024.6 hPa Calm   1.0 mph /  1.6 km/h 95 % 0.00 in /  0 mm 0 W/m2
23:20 47.5 °F /  8.6 °C 46.1 °F /  7.8 °C 30.26 in /  1024.6 hPa Calm   1.0 mph /  1.6 km/h 95 % 0.00 in /  0 mm 0 W/m2
23:25 47.5 °F /  8.6 °C 46.1 °F /  7.8 °C 30.26 in /  1024.6 hPa NNE 1.0 mph /  1.6 km/h 1.0 mph /  1.6 km/h 95 % 0.00 in /  0 mm 0 W/m2
23:30 47.5 °F /  8.6 °C 46.1 °F /  7.8 °C 30.26 in /  1024.6 hPa NNE 1.0 mph /  1.6 km/h 1.0 mph /  1.6 km/h 95 % 0.00 in /  0 mm 0 W/m2
23:40 47.4 °F /  8.6 °C 46.0 °F /  7.8 °C 30.26 in /  1024.6 hPa Calm   1.0 mph /  1.6 km/h 95 % 0.00 in /  0 mm 0 W/m2
23:45 47.4 °F /  8.6 °C 46.0 °F /  7.8 °C 30.26 in /  1024.6 hPa Calm   1.0 mph /  1.6 km/h 95 % 0.00 in /  0 mm 0 W/m2
23:55 47.3 °F /  8.5 °C 45.9 °F /  7.7 °C 30.26 in /  1024.6 hPa North 1.0 mph /  1.6 km/h 1.0 mph /  1.6 km/h 95 % 0.00 in /  0 mm 0 W/m2
Delerius-Weather
Compliments of Weather Underground - 2 mb

Data updates at regular intervals.